createdAt,value
2023-03-16T00:00:21.815Z,3.51
2023-03-16T00:03:03.854Z,4.99
2023-03-16T00:05:38.547Z,5.50
2023-03-16T00:08:24.414Z,4.21
2023-03-16T00:10:54.362Z,2.81
2023-03-16T00:13:24.544Z,2.06
2023-03-16T00:16:00.976Z,3.02
2023-03-16T00:18:43.290Z,4.41
2023-03-16T00:21:18.584Z,4.64
2023-03-16T00:23:53.538Z,3.32
2023-03-16T00:26:27.106Z,2.13
2023-03-16T00:29:01.849Z,1.83
2023-03-16T00:31:36.027Z,3.34
2023-03-16T00:34:13.445Z,4.64
2023-03-16T00:36:46.526Z,4.66
2023-03-16T00:39:15.048Z,3.41
2023-03-16T00:41:51.215Z,2.29
2023-03-16T00:44:24.897Z,1.45
2023-03-16T00:46:59.566Z,1.28
2023-03-16T00:49:37.702Z,2.82
2023-03-16T00:52:15.115Z,4.31
2023-03-16T00:55:04.972Z,5.41
2023-03-16T00:57:51.935Z,5.54
2023-03-16T01:00:28.710Z,3.93
2023-03-16T01:03:02.532Z,2.68
2023-03-16T01:05:30.571Z,1.83
2023-03-16T01:08:16.398Z,1.52
2023-03-16T01:10:45.370Z,3.14
2023-03-16T01:13:13.321Z,4.56
2023-03-16T01:15:41.329Z,5.33
2023-03-16T01:18:09.269Z,5.37
2023-03-16T01:20:37.182Z,4.09
2023-03-16T01:23:07.333Z,2.84
2023-03-16T01:25:35.270Z,1.95
2023-03-16T01:29:23.702Z,1.27
2023-03-16T01:31:53.833Z,0.46
2023-03-16T01:34:39.653Z,0.34
2023-03-16T01:37:08.309Z,2.21
2023-03-16T01:39:52.884Z,4.04
2023-03-16T01:42:21.486Z,5.19
2023-03-16T01:45:46.405Z,5.19
2023-03-16T01:48:26.008Z,3.20
2023-03-16T01:51:21.235Z,1.96
2023-03-16T01:54:29.505Z,1.03
2023-03-16T01:57:11.809Z,0.32
2023-03-16T01:59:55.091Z,-0.18
2023-03-16T02:02:32.161Z,-0.15
2023-03-16T02:05:09.262Z,1.91
2023-03-16T02:08:08.298Z,3.55
2023-03-16T02:10:38.033Z,4.62
2023-03-16T02:13:06.080Z,4.69
2023-03-16T02:15:36.194Z,3.32
2023-03-16T02:18:05.780Z,1.99
2023-03-16T02:20:48.283Z,1.07
2023-03-16T02:23:24.277Z,0.38
2023-03-16T02:26:02.347Z,0.23
2023-03-16T02:28:54.207Z,2.20
2023-03-16T02:31:28.155Z,4.11
2023-03-16T02:34:03.321Z,5.02
2023-03-16T02:41:18.613Z,2.84
2023-03-16T02:44:07.816Z,1.50
2023-03-16T02:46:38.741Z,0.65
2023-03-16T02:49:19.998Z,0.09
2023-03-16T02:51:54.888Z,-0.44
2023-03-16T02:54:27.931Z,-0.44
2023-03-16T02:56:56.226Z,1.62
2023-03-16T02:59:24.830Z,3.39
2023-03-16T03:02:11.919Z,4.46
2023-03-16T03:04:48.561Z,4.47
2023-03-16T03:07:22.343Z,2.61
2023-03-16T03:09:59.567Z,1.07
2023-03-16T03:12:27.566Z,0.03
2023-03-16T03:14:57.347Z,-0.27
2023-03-16T03:17:30.246Z,1.33
2023-03-16T03:20:00.310Z,2.84
2023-03-16T03:22:28.567Z,3.37
2023-03-16T03:24:56.485Z,2.04
2023-03-16T03:27:24.673Z,0.65
2023-03-16T03:29:53.399Z,-0.30
2023-03-16T03:32:21.992Z,-0.98
2023-03-16T03:34:50.252Z,-1.02
2023-03-16T03:37:18.334Z,1.04
2023-03-16T03:39:46.388Z,3.00
2023-03-16T03:42:14.666Z,4.13
2023-03-16T03:44:42.573Z,4.46
2023-03-16T03:47:11.515Z,3.07
2023-03-16T03:49:45.573Z,1.67
2023-03-16T03:52:22.360Z,0.65
2023-03-16T03:54:51.593Z,-0.05
2023-03-16T03:57:38.787Z,-0.21
2023-03-16T04:00:13.786Z,1.89
2023-03-16T04:03:03.716Z,3.51
2023-03-16T04:05:57.183Z,3.62
2023-03-16T04:08:43.727Z,1.79
2023-03-16T04:11:18.785Z,0.37
2023-03-16T04:13:55.445Z,-0.49
2023-03-16T04:16:29.461Z,-1.00
2023-03-16T04:18:57.907Z,0.52
2023-03-16T04:21:32.235Z,2.70
2023-03-16T04:24:06.104Z,4.07
2023-03-16T04:26:42.541Z,3.51
2023-03-16T04:29:20.286Z,1.83
2023-03-16T04:31:56.717Z,0.50
2023-03-16T04:34:30.341Z,-0.45
2023-03-16T04:37:05.438Z,-1.22
2023-03-16T04:39:40.216Z,-1.04
2023-03-16T04:42:13.928Z,1.14
2023-03-16T04:44:48.333Z,2.87
2023-03-16T04:47:23.568Z,3.45
2023-03-16T04:49:57.045Z,1.92
2023-03-16T04:52:31.642Z,0.35
2023-03-16T04:55:08.010Z,-0.81
2023-03-16T04:57:41.415Z,-0.34
2023-03-16T05:00:21.649Z,1.65
2023-03-16T05:03:00.735Z,3.05
2023-03-16T05:05:28.888Z,3.08
2023-03-16T05:07:56.978Z,1.63
2023-03-16T05:10:28.221Z,0.23
2023-03-16T05:12:56.911Z,-0.71
2023-03-16T05:15:25.083Z,-1.37
2023-03-16T05:18:20.590Z,-1.41
2023-03-16T05:20:53.651Z,0.51
2023-03-16T05:23:23.023Z,2.33
2023-03-16T05:25:59.836Z,3.61
2023-03-16T05:28:28.532Z,3.96
2023-03-16T05:31:03.832Z,2.39
2023-03-16T05:33:37.312Z,0.74
2023-03-16T05:36:08.466Z,0.05
2023-03-16T05:38:36.968Z,1.81
2023-03-16T05:41:24.338Z,3.28
2023-03-16T05:44:11.972Z,3.49
2023-03-16T05:47:06.157Z,2.02
2023-03-16T05:49:36.482Z,0.93
2023-03-16T05:52:07.832Z,0.58
2023-03-16T05:54:36.615Z,2.25
2023-03-16T05:57:07.114Z,3.88
2023-03-16T05:59:36.020Z,5.05
2023-03-16T06:02:04.667Z,5.38
2023-03-16T06:04:32.858Z,3.99
2023-03-16T06:07:01.260Z,2.65
2023-03-16T06:09:29.897Z,1.72
2023-03-16T06:11:58.274Z,1.47
2023-03-16T06:14:26.819Z,3.31
2023-03-16T06:16:55.475Z,5.09
2023-03-16T06:19:23.560Z,6.09
2023-03-16T06:21:55.768Z,6.51
2023-03-16T06:24:23.838Z,5.14
2023-03-16T06:26:52.410Z,3.83
2023-03-16T06:29:20.823Z,2.97
2023-03-16T06:31:51.466Z,2.39
2023-03-16T06:34:19.866Z,2.44
2023-03-16T06:36:47.818Z,4.55
2023-03-16T06:39:16.115Z,6.28
2023-03-16T06:41:47.942Z,7.15
2023-03-16T06:44:17.039Z,5.90
2023-03-16T06:46:54.481Z,4.41
2023-03-16T06:49:22.647Z,3.54
2023-03-16T06:51:51.315Z,3.24
2023-03-16T06:54:19.854Z,5.00
2023-03-16T06:56:47.871Z,6.31
2023-03-16T06:59:15.829Z,5.59
2023-03-16T07:01:45.084Z,4.22
2023-03-16T07:04:14.120Z,3.61
2023-03-16T07:06:43.119Z,4.93
2023-03-16T07:09:13.331Z,6.48
2023-03-16T07:11:43.195Z,6.87
2023-03-16T07:14:13.705Z,5.76
2023-03-16T07:16:42.532Z,4.34
2023-03-16T07:19:11.645Z,3.70
2023-03-16T07:21:42.342Z,5.19
2023-03-16T07:24:17.839Z,6.27
2023-03-16T07:26:46.727Z,5.79
2023-03-16T07:29:22.075Z,4.60
2023-03-16T07:31:51.736Z,4.62
2023-03-16T07:34:21.452Z,6.31
2023-03-16T07:36:54.477Z,6.70
2023-03-16T07:39:24.400Z,5.14
2023-03-16T07:41:56.238Z,4.06
2023-03-16T07:44:38.430Z,4.03
2023-03-16T07:47:07.288Z,5.56
2023-03-16T07:49:35.804Z,6.84
2023-03-16T07:52:04.214Z,5.93
2023-03-16T07:54:37.453Z,4.57
2023-03-16T07:57:06.714Z,3.85
2023-03-16T07:59:39.482Z,3.97
2023-03-16T08:02:13.333Z,5.59
2023-03-16T08:04:44.778Z,7.47
2023-03-16T08:07:15.542Z,7.12
2023-03-16T08:09:52.848Z,5.78
2023-03-16T08:12:25.805Z,4.79
2023-03-16T08:14:54.916Z,4.16
2023-03-16T08:17:32.619Z,3.71
2023-03-16T08:20:01.798Z,3.89
2023-03-16T08:22:30.980Z,5.64
2023-03-16T08:24:58.961Z,7.30
2023-03-16T08:27:29.359Z,7.16
2023-03-16T08:30:05.135Z,6.09
2023-03-16T08:32:34.435Z,5.11
2023-03-16T08:35:03.670Z,4.55
2023-03-16T08:37:33.405Z,4.23
2023-03-16T08:40:10.484Z,4.11
2023-03-16T08:42:38.916Z,5.59
2023-03-16T08:45:12.309Z,7.33
2023-03-16T08:47:42.716Z,8.60
2023-03-16T08:50:13.437Z,7.29
2023-03-16T08:52:41.608Z,6.36
2023-03-16T08:55:11.056Z,5.76
2023-03-16T08:57:39.445Z,5.24
2023-03-16T09:00:13.301Z,4.84
2023-03-16T09:02:42.832Z,4.61
2023-03-16T09:05:14.920Z,4.46
2023-03-16T09:07:44.416Z,4.35
2023-03-16T09:10:16.177Z,4.26
2023-03-16T09:12:45.268Z,4.24
2023-03-16T09:15:16.487Z,5.15
2023-03-16T09:17:48.202Z,7.49
2023-03-16T09:20:35.048Z,8.28
2023-03-16T09:23:06.721Z,7.62
2023-03-16T09:25:35.396Z,7.15
2023-03-16T09:28:05.074Z,6.71
2023-03-16T09:30:42.371Z,6.24
2023-03-16T09:33:12.494Z,5.87
2023-03-16T09:35:40.637Z,5.52
2023-03-16T09:38:08.702Z,5.18
2023-03-16T09:40:38.374Z,4.88
2023-03-16T09:43:45.281Z,4.63
2023-03-16T09:46:16.588Z,4.42
2023-03-16T09:48:45.673Z,4.29
2023-03-16T09:51:22.984Z,4.34
2023-03-16T09:53:59.031Z,4.53
2023-03-16T09:56:34.029Z,4.84
2023-03-16T09:59:13.492Z,5.18
2023-03-16T10:01:51.233Z,5.33
2023-03-16T10:04:33.906Z,5.25
2023-03-16T10:07:21.239Z,5.10
2023-03-16T10:09:59.356Z,4.83
2023-03-16T10:12:38.175Z,4.57
2023-03-16T10:15:14.755Z,4.35
2023-03-16T10:18:08.146Z,4.29
2023-03-16T10:20:36.772Z,4.47
2023-03-16T10:23:17.800Z,4.70
2023-03-16T10:25:48.658Z,5.00
2023-03-16T10:28:26.342Z,5.26
2023-03-16T10:30:56.665Z,5.50
2023-03-16T10:33:33.661Z,5.61
2023-03-16T10:36:24.399Z,5.53
2023-03-16T10:38:59.756Z,5.40
2023-03-16T10:41:31.751Z,5.28
2023-03-16T10:44:08.572Z,5.09
2023-03-16T10:46:42.252Z,4.91
2023-03-16T10:49:29.326Z,4.83
2023-03-16T10:52:00.344Z,4.88
2023-03-16T10:54:39.237Z,4.85
2023-03-16T10:57:25.429Z,4.82
2023-03-16T10:59:56.826Z,4.76
2023-03-16T11:02:33.058Z,4.65
2023-03-16T11:05:17.666Z,4.61
2023-03-16T11:07:56.839Z,4.57
2023-03-16T11:10:46.018Z,4.76
2023-03-16T11:13:22.759Z,5.17
2023-03-16T11:15:58.895Z,5.64
2023-03-16T11:18:51.301Z,5.91
2023-03-16T11:21:34.600Z,5.90
2023-03-16T11:24:06.165Z,5.76
2023-03-16T11:26:39.504Z,5.61
2023-03-16T11:29:24.144Z,5.45
2023-03-16T11:32:00.411Z,5.33
2023-03-16T11:34:31.098Z,5.35
2023-03-16T11:37:32.740Z,5.35
2023-03-16T11:40:15.474Z,5.28
2023-03-16T11:43:02.852Z,5.16
2023-03-16T11:45:44.314Z,5.20
2023-03-16T11:48:48.652Z,5.42
2023-03-16T11:51:28.907Z,5.78
2023-03-16T11:54:17.543Z,5.88
2023-03-16T11:56:52.960Z,5.92
2023-03-16T11:59:55.504Z,5.92
2023-03-16T12:02:45.617Z,5.97
2023-03-16T12:05:23.330Z,6.04
2023-03-16T12:08:00.562Z,6.00
2023-03-16T12:10:58.971Z,5.95
2023-03-16T12:14:01.574Z,5.83
2023-03-16T12:16:49.077Z,5.74
2023-03-16T12:19:24.991Z,5.71
2023-03-16T12:22:05.822Z,5.71
2023-03-16T12:24:42.728Z,5.93
2023-03-16T12:27:22.625Z,6.02
2023-03-16T12:30:18.863Z,6.04
2023-03-16T12:32:53.666Z,5.98
2023-03-16T12:35:30.527Z,5.93
2023-03-16T12:38:07.865Z,6.06
2023-03-16T12:40:55.288Z,6.38
2023-03-16T12:43:27.181Z,6.64
2023-03-16T12:46:11.999Z,6.72
2023-03-16T12:48:51.014Z,6.65
2023-03-16T12:51:35.003Z,6.55
2023-03-16T12:54:04.296Z,6.36
2023-03-16T12:56:43.442Z,6.27
2023-03-16T12:59:21.557Z,6.15
2023-03-16T13:01:53.142Z,5.98
2023-03-16T13:04:30.540Z,5.87
2023-03-16T13:07:07.952Z,5.81
2023-03-16T13:09:42.516Z,5.78
2023-03-16T13:12:21.872Z,5.82
2023-03-16T13:14:54.721Z,5.88
2023-03-16T13:17:32.815Z,6.03
2023-03-16T13:20:30.659Z,6.36
2023-03-16T13:23:24.690Z,7.06
2023-03-16T13:26:05.753Z,7.75
2023-03-16T13:28:38.979Z,8.08
2023-03-16T13:31:25.683Z,8.22
2023-03-16T13:34:00.216Z,8.17
2023-03-16T13:36:30.754Z,7.97
2023-03-16T13:39:22.574Z,7.85
2023-03-16T13:42:04.954Z,7.74
2023-03-16T13:44:33.173Z,7.65
2023-03-16T13:47:05.917Z,7.66
2023-03-16T13:49:43.287Z,7.70
2023-03-16T13:52:19.197Z,7.77
2023-03-16T13:54:47.466Z,7.83
2023-03-16T13:57:22.413Z,7.91
2023-03-16T13:59:50.754Z,7.91
2023-03-16T14:02:23.264Z,7.81
2023-03-16T14:04:51.888Z,7.85
2023-03-16T14:07:23.874Z,7.99
2023-03-16T14:09:53.754Z,7.97
2023-03-16T14:12:21.616Z,7.91
2023-03-16T14:14:54.923Z,7.88
2023-03-16T14:17:24.352Z,7.82
2023-03-16T14:19:58.829Z,7.77
2023-03-16T14:22:34.014Z,7.60
2023-03-16T14:25:04.856Z,7.51
2023-03-16T14:27:44.458Z,7.42
2023-03-16T14:30:26.077Z,7.44
2023-03-16T14:33:02.721Z,7.57
2023-03-16T14:35:57.717Z,7.59
2023-03-16T14:38:37.035Z,7.68
2023-03-16T14:41:08.881Z,7.66
2023-03-16T14:43:45.333Z,7.54
2023-03-16T14:46:16.843Z,7.31
2023-03-16T14:48:45.844Z,7.16
2023-03-16T14:51:14.594Z,7.07
2023-03-16T14:53:42.493Z,7.06
2023-03-16T14:56:14.524Z,7.14
2023-03-16T14:58:42.450Z,7.22
2023-03-16T15:01:18.040Z,7.35
2023-03-16T15:03:46.756Z,7.66
2023-03-16T15:06:15.314Z,8.09
2023-03-16T15:08:47.188Z,8.39
2023-03-16T15:11:21.423Z,8.57
2023-03-16T15:13:49.515Z,8.88
2023-03-16T15:16:17.717Z,9.15
2023-03-16T15:18:46.207Z,9.29
2023-03-16T15:21:25.551Z,9.26
2023-03-16T15:23:53.840Z,9.09
2023-03-16T15:26:26.561Z,8.92
2023-03-16T15:28:56.533Z,8.82
2023-03-16T15:31:24.638Z,8.77
2023-03-16T15:33:52.688Z,8.84
2023-03-16T15:36:22.706Z,9.06
2023-03-16T15:38:53.739Z,9.36
2023-03-16T15:41:23.527Z,9.66
2023-03-16T15:43:54.001Z,9.83
2023-03-16T15:46:22.951Z,10.10
2023-03-16T15:48:50.891Z,10.64
2023-03-16T15:51:27.430Z,11.53
2023-03-16T15:54:02.436Z,12.39
2023-03-16T15:56:47.249Z,12.75
2023-03-16T15:59:19.203Z,12.03
2023-03-16T16:01:48.546Z,11.04
2023-03-16T16:04:22.844Z,10.05
2023-03-16T16:06:55.470Z,9.21
2023-03-16T16:09:23.918Z,8.89
2023-03-16T16:11:51.986Z,9.11
2023-03-16T16:14:24.998Z,9.45
2023-03-16T16:16:54.477Z,9.85
2023-03-16T16:19:22.652Z,10.15
2023-03-16T16:21:50.722Z,10.13
2023-03-16T16:24:19.367Z,9.80
2023-03-16T16:26:54.659Z,9.27
2023-03-16T16:29:25.863Z,8.87
2023-03-16T16:31:54.067Z,8.52
2023-03-16T16:34:27.569Z,8.26
2023-03-16T16:36:57.543Z,7.98
2023-03-16T16:39:26.300Z,7.65
2023-03-16T16:46:15.754Z,6.76
2023-03-16T16:48:54.382Z,6.45
2023-03-16T16:51:24.952Z,6.14
2023-03-16T16:53:54.702Z,5.81
2023-03-16T16:56:25.962Z,5.48
2023-03-16T16:58:55.871Z,5.13
2023-03-16T17:01:33.132Z,4.79
2023-03-16T17:04:02.710Z,4.44
2023-03-16T17:06:30.726Z,4.15
2023-03-16T17:08:58.747Z,3.91
2023-03-16T17:11:30.106Z,3.67
2023-03-16T17:14:00.944Z,3.36
2023-03-16T17:16:35.693Z,3.05
2023-03-16T17:19:04.311Z,2.81
2023-03-16T17:21:32.388Z,2.60
2023-03-16T17:24:00.557Z,2.44
2023-03-16T17:26:37.504Z,2.31
2023-03-16T17:29:22.860Z,2.19
2023-03-16T17:31:51.771Z,2.03
2023-03-16T17:34:26.143Z,1.87
2023-03-16T17:36:55.004Z,1.62
2023-03-16T17:39:26.742Z,1.39
2023-03-16T17:42:00.828Z,1.21
2023-03-16T17:44:41.478Z,1.03
2023-03-16T17:47:21.498Z,0.85
2023-03-16T17:49:50.900Z,0.69
2023-03-16T17:52:24.160Z,0.55
2023-03-16T17:54:53.781Z,0.42
2023-03-16T17:57:28.238Z,0.29
2023-03-16T17:59:57.160Z,0.15
2023-03-16T18:02:43.139Z,0.05
2023-03-16T18:05:20.587Z,-0.06
2023-03-16T18:07:48.814Z,-0.15
2023-03-16T18:10:19.913Z,-0.23
2023-03-16T18:12:52.720Z,-0.30
2023-03-16T18:15:23.153Z,-0.34
2023-03-16T18:17:51.452Z,-0.37
2023-03-16T18:20:28.367Z,-0.41
2023-03-16T18:23:02.818Z,-0.44
2023-03-16T18:25:39.287Z,-0.44
2023-03-16T18:28:09.184Z,-0.44
2023-03-16T18:30:39.113Z,-0.46
2023-03-16T18:33:12.625Z,-0.50
2023-03-16T18:35:40.653Z,-0.57
2023-03-16T18:38:31.412Z,-0.66
2023-03-16T18:41:02.291Z,-0.76
2023-03-16T18:43:30.315Z,-0.83
2023-03-16T18:45:58.521Z,-0.87
2023-03-16T18:48:32.835Z,-0.90
2023-03-16T18:51:02.146Z,-0.95
2023-03-16T18:53:30.109Z,-0.53
2023-03-16T18:55:58.945Z,1.69
2023-03-16T18:58:27.052Z,2.85
2023-03-16T19:00:58.287Z,2.20
2023-03-16T19:03:32.293Z,1.37
2023-03-16T19:06:02.341Z,0.77
2023-03-16T19:08:34.445Z,0.38
2023-03-16T19:11:05.957Z,0.01
2023-03-16T19:13:40.130Z,-0.29
2023-03-16T19:16:16.673Z,-0.49
2023-03-16T19:18:45.317Z,-0.67
2023-03-16T19:21:20.172Z,-0.75
2023-03-16T19:23:55.122Z,0.65
2023-03-16T19:26:24.001Z,2.24
2023-03-16T19:28:52.099Z,1.75
2023-03-16T19:31:23.968Z,0.98
2023-03-16T19:33:52.945Z,0.42
2023-03-16T19:36:30.662Z,0.02
2023-03-16T19:38:59.206Z,-0.30
2023-03-16T19:41:33.494Z,-0.55
2023-03-16T19:44:09.129Z,-0.73
2023-03-16T19:46:37.444Z,-0.91
2023-03-16T19:49:10.268Z,-1.06
2023-03-16T19:51:38.325Z,-1.19
2023-03-16T19:54:07.098Z,-0.99
2023-03-16T19:56:35.127Z,0.93
2023-03-16T19:59:08.213Z,3.09
2023-03-16T20:01:36.419Z,4.66
2023-03-16T20:04:04.567Z,5.18
2023-03-16T20:06:33.937Z,3.92
2023-03-16T20:09:01.852Z,2.54
2023-03-16T20:11:32.240Z,1.53
2023-03-16T20:14:01.293Z,0.86
2023-03-16T20:16:34.923Z,0.38
2023-03-16T20:19:12.498Z,-0.04
2023-03-16T20:21:41.372Z,-0.43
2023-03-16T20:24:16.534Z,-0.71
2023-03-16T20:26:45.775Z,-0.94
2023-03-16T20:29:32.326Z,-1.15
2023-03-16T20:32:01.382Z,-1.33
2023-03-16T20:34:32.258Z,-1.05
2023-03-16T20:37:00.751Z,0.81
2023-03-16T20:39:32.219Z,2.00
2023-03-16T20:42:01.328Z,1.36
2023-03-16T20:44:30.438Z,0.55
2023-03-16T20:46:58.653Z,-0.05
2023-03-16T20:49:30.819Z,-0.52
2023-03-16T20:52:01.874Z,-0.88
2023-03-16T20:54:29.810Z,-0.66
2023-03-16T20:56:58.197Z,1.37
2023-03-16T20:59:27.078Z,2.82
2023-03-16T21:01:55.831Z,2.05
2023-03-16T21:04:27.699Z,0.99
2023-03-16T21:06:56.859Z,0.22
2023-03-16T21:09:25.150Z,-0.33
2023-03-16T21:11:53.235Z,-0.74
2023-03-16T21:14:24.026Z,-0.66
2023-03-16T21:16:53.984Z,1.15
2023-03-16T21:19:23.651Z,1.83
2023-03-16T21:21:52.022Z,0.96
2023-03-16T21:24:20.054Z,0.20
2023-03-16T21:26:48.240Z,-0.37
2023-03-16T21:29:21.329Z,-0.74
2023-03-16T21:31:50.121Z,-1.05
2023-03-16T21:34:28.688Z,-0.74
2023-03-16T21:36:56.893Z,1.78
2023-03-16T21:39:25.590Z,3.63
2023-03-16T21:41:53.748Z,4.23
2023-03-16T21:44:37.877Z,2.97
2023-03-16T21:47:23.213Z,1.46
2023-03-16T21:49:52.022Z,0.43
2023-03-16T21:52:25.034Z,-0.21
2023-03-16T21:54:54.502Z,-0.49
2023-03-16T21:57:23.030Z,1.02
2023-03-16T21:59:51.235Z,2.14
2023-03-16T22:02:22.944Z,1.34
2023-03-16T22:04:51.923Z,0.39
2023-03-16T22:07:20.901Z,-0.26
2023-03-16T22:09:49.113Z,-0.25
2023-03-16T22:12:22.291Z,1.73
2023-03-16T22:14:56.414Z,3.56
2023-03-16T22:17:25.000Z,4.14
2023-03-16T22:19:58.772Z,2.80
2023-03-16T22:22:57.183Z,1.30
2023-03-16T22:25:27.570Z,0.41
2023-03-16T22:27:56.243Z,-0.12
2023-03-16T22:30:27.561Z,-0.51
2023-03-16T22:32:59.590Z,-0.83
2023-03-16T22:35:34.854Z,-1.17
2023-03-16T22:38:07.330Z,-1.05
2023-03-16T22:40:37.702Z,1.00
2023-03-16T22:43:11.148Z,2.80
2023-03-16T22:45:39.153Z,3.99
2023-03-16T22:48:22.428Z,4.42
2023-03-16T22:50:51.125Z,2.83
2023-03-16T22:53:36.650Z,1.42
2023-03-16T22:56:05.570Z,0.37
2023-03-16T22:58:39.239Z,-0.27
2023-03-16T23:01:23.210Z,-0.79
2023-03-16T23:03:52.982Z,-0.83
2023-03-16T23:06:24.071Z,1.01
2023-03-16T23:08:53.177Z,2.85
2023-03-16T23:11:25.106Z,3.83
2023-03-16T23:13:53.855Z,2.64
2023-03-16T23:16:37.676Z,1.26
2023-03-16T23:19:38.655Z,0.23
2023-03-16T23:22:07.302Z,-0.55
2023-03-16T23:24:42.472Z,-0.57
2023-03-16T23:27:22.425Z,1.34
2023-03-16T23:29:50.447Z,3.14
2023-03-16T23:32:18.448Z,3.84
2023-03-16T23:34:46.463Z,2.66
2023-03-16T23:37:14.657Z,1.27
2023-03-16T23:39:43.961Z,0.31
2023-03-16T23:42:12.693Z,-0.29
2023-03-16T23:44:40.939Z,0.71
2023-03-16T23:47:11.016Z,2.55
2023-03-16T23:49:46.201Z,3.22
2023-03-16T23:52:14.627Z,2.02
2023-03-16T23:54:43.558Z,0.77
2023-03-16T23:57:11.648Z,-0.06
2023-03-16T23:59:39.637Z,-0.10
